Time;durP1;ratioP1;P1;durP2;ratioP2;P2;SDS_P1;SDS_P2;PMS_P1;PMS_P2;Temp;Humidity;BMP_temperature;BMP_pressure;BME280_temperature;BME280_humidity;BME280_pressure;Samples;Min_cycle;Max_cycle;Signal;HPM_P1;HPM_P2
2023/12/30 00:02:21;;;;;;;2.97;0.88;;;10.40;60.50;;;;;;5032591;28;20621;-81
2023/12/30 00:04:49;;;;;;;2.13;0.90;;;10.40;60.70;;;;;;5032315;28;20631;-81
2023/12/30 00:07:16;;;;;;;2.13;1.00;;;10.40;60.70;;;;;;5032942;28;20287;-81
2023/12/30 00:09:43;;;;;;;1.90;1.00;;;10.40;61.10;;;;;;5032265;28;20218;-81
2023/12/30 00:12:10;;;;;;;1.90;1.00;;;10.50;61.30;;;;;;5032708;28;20705;-82
2023/12/30 00:14:37;;;;;;;1.73;0.68;;;10.50;61.20;;;;;;5032159;28;20183;-82
2023/12/30 00:17:04;;;;;;;2.00;0.85;;;10.60;61.40;;;;;;5032061;28;20286;-82
2023/12/30 00:19:33;;;;;;;1.77;0.75;;;10.50;61.50;;;;;;5032208;28;20282;-85
2023/12/30 00:22:02;;;;;;;2.00;1.10;;;10.50;61.70;;;;;;5032733;28;20195;-82
2023/12/30 00:24:29;;;;;;;2.80;0.77;;;10.50;62.60;;;;;;5032030;28;20206;-83
2023/12/30 00:26:56;;;;;;;2.50;1.27;;;10.60;63.30;;;;;;5031915;28;20227;-83
2023/12/30 00:29:23;;;;;;;1.80;0.90;;;10.60;63.70;;;;;;5032421;28;20607;-82
2023/12/30 00:31:50;;;;;;;2.22;1.17;;;10.60;64.40;;;;;;5032567;28;20725;-84
2023/12/30 00:34:16;;;;;;;2.90;1.08;;;10.60;65.00;;;;;;5032731;28;20278;-84
2023/12/30 00:36:44;;;;;;;16.20;7.03;;;10.60;65.50;;;;;;5031719;28;20269;-85
2023/12/30 00:39:12;;;;;;;2.40;1.30;;;10.60;65.60;;;;;;5031626;28;20191;-82
2023/12/30 00:41:39;;;;;;;2.55;1.27;;;10.60;65.80;;;;;;5032925;28;20273;-82
2023/12/30 00:44:07;;;;;;;2.20;1.15;;;10.50;66.30;;;;;;5033037;28;20298;-84
2023/12/30 00:46:34;;;;;;;2.03;1.10;;;10.60;66.60;;;;;;5032541;28;20219;-84
2023/12/30 00:49:00;;;;;;;1.80;0.90;;;10.50;66.70;;;;;;5032758;28;20266;-83
2023/12/30 00:51:27;;;;;;;1.92;0.95;;;10.50;66.80;;;;;;5033004;28;20274;-83
2023/12/30 00:53:54;;;;;;;2.40;1.25;;;10.50;67.10;;;;;;5032644;28;20703;-83
2023/12/30 00:56:23;;;;;;;2.38;1.13;;;10.50;67.30;;;;;;5032504;28;20259;-83
2023/12/30 00:58:49;;;;;;;3.55;1.25;;;10.50;67.40;;;;;;5032683;28;20229;-83
2023/12/30 01:01:16;;;;;;;3.83;1.17;;;10.50;67.50;;;;;;5032770;28;20279;-82
2023/12/30 01:03:43;;;;;;;2.05;1.00;;;10.50;67.60;;;;;;5032996;28;20298;-84
2023/12/30 01:06:10;;;;;;;2.10;1.15;;;10.40;67.60;;;;;;5032458;28;20706;-85
2023/12/30 01:08:37;;;;;;;3.00;1.10;;;10.50;67.80;;;;;;5032199;28;20211;-85
2023/12/30 01:11:05;;;;;;;2.47;1.45;;;10.60;67.80;;;;;;5031992;28;20737;-86
2023/12/30 01:13:33;;;;;;;2.10;0.93;;;10.60;68.10;;;;;;5032953;28;20193;-86
2023/12/30 01:16:04;;;;;;;3.35;1.10;;;10.60;67.90;;;;;;5032459;28;20282;-84
2023/12/30 01:18:31;;;;;;;2.00;0.90;;;10.60;68.00;;;;;;5032123;28;20207;-84
2023/12/30 01:20:58;;;;;;;1.95;1.00;;;10.70;68.10;;;;;;5032831;28;20274;-84
2023/12/30 01:23:25;;;;;;;1.90;0.85;;;10.70;67.90;;;;;;5032766;28;20278;-85
2023/12/30 01:25:52;;;;;;;2.72;1.00;;;10.70;67.90;;;;;;5032564;28;20295;-83
2023/12/30 01:28:19;;;;;;;2.22;1.05;;;10.60;67.90;;;;;;5031483;28;20249;-84
2023/12/30 01:30:47;;;;;;;2.53;1.40;;;10.60;68.00;;;;;;5031745;28;20604;-83
2023/12/30 01:33:14;;;;;;;2.35;1.10;;;10.60;68.00;;;;;;5032634;28;20187;-83
2023/12/30 01:35:41;;;;;;;2.00;1.00;;;10.70;68.20;;;;;;5036302;28;20279;-83
2023/12/30 01:38:08;;;;;;;2.10;1.00;;;10.70;68.10;;;;;;5036238;28;20278;-83
2023/12/30 01:40:35;;;;;;;2.00;1.00;;;10.60;68.00;;;;;;5036050;28;20270;-84
2023/12/30 01:43:04;;;;;;;2.50;1.17;;;10.60;68.10;;;;;;5035691;28;20225;-82
2023/12/30 01:45:31;;;;;;;2.45;0.98;;;10.60;68.10;;;;;;5035891;28;20211;-86
2023/12/30 01:47:59;;;;;;;2.00;1.08;;;10.60;68.10;;;;;;5036201;28;20318;-83
2023/12/30 01:50:27;;;;;;;3.45;1.08;;;10.60;68.00;;;;;;5033644;28;20282;-82
2023/12/30 01:52:54;;;;;;;3.50;1.85;;;10.60;68.10;;;;;;5033859;28;20190;-82
2023/12/30 01:55:23;;;;;;;2.00;1.00;;;10.60;68.10;;;;;;5034489;28;20466;-82
2023/12/30 01:57:50;;;;;;;2.30;1.10;;;10.50;68.10;;;;;;5035542;28;20669;-81
2023/12/30 02:00:20;;;;;;;2.15;1.00;;;10.50;68.10;;;;;;5035642;28;20688;-81
2023/12/30 02:02:48;;;;;;;2.10;1.10;;;10.50;68.20;;;;;;5035496;28;20182;-82
2023/12/30 02:05:17;;;;;;;2.78;0.80;;;10.50;68.50;;;;;;5035595;28;20241;-82
2023/12/30 02:07:46;;;;;;;2.30;1.00;;;10.50;68.50;;;;;;5035594;28;20192;-82
2023/12/30 02:10:13;;;;;;;2.55;1.05;;;10.50;68.40;;;;;;5036327;28;20201;-81
2023/12/30 02:12:40;;;;;;;1.92;1.00;;;10.40;68.60;;;;;;5035327;28;20275;-81
2023/12/30 02:15:14;;;;;;;2.70;1.10;;;10.40;68.70;;;;;;5035777;28;20196;-81
2023/12/30 02:17:41;;;;;;;2.10;1.02;;;10.30;69.50;;;;;;5035622;28;20273;-82
2023/12/30 02:20:09;;;;;;;2.17;1.05;;;10.40;68.40;;;;;;5034976;28;20234;-81
2023/12/30 02:22:45;;;;;;;2.88;1.20;;;10.40;68.30;;;;;;5035528;28;20223;-81
2023/12/30 02:25:12;;;;;;;2.67;1.30;;;10.30;68.20;;;;;;5035566;28;20235;-82
2023/12/30 02:27:38;;;;;;;2.70;1.55;;;10.30;68.30;;;;;;5035255;28;20277;-81
2023/12/30 02:30:07;;;;;;;2.17;1.33;;;10.30;68.00;;;;;;5034451;28;20266;-81
2023/12/30 02:32:33;;;;;;;2.72;1.23;;;10.30;67.80;;;;;;5032256;28;20183;-82
2023/12/30 02:35:00;;;;;;;2.42;1.27;;;10.30;68.30;;;;;;5035241;28;20578;-82
2023/12/30 02:37:27;;;;;;;2.40;1.35;;;10.30;67.30;;;;;;5035384;28;20569;-82
2023/12/30 02:39:55;;;;;;;2.35;1.20;;;10.30;67.40;;;;;;5035045;28;20350;-80
2023/12/30 02:42:22;;;;;;;2.00;1.15;;;10.30;67.20;;;;;;5015106;28;20279;-81
2023/12/30 02:44:50;;;;;;;2.10;1.10;;;10.20;66.90;;;;;;5014806;28;20251;-82
2023/12/30 02:47:16;;;;;;;2.88;1.23;;;10.20;66.90;;;;;;5014206;28;20259;-81
2023/12/30 02:49:45;;;;;;;2.20;1.05;;;10.20;67.00;;;;;;5014986;28;20754;-82
2023/12/30 02:52:12;;;;;;;2.20;1.10;;;10.20;67.10;;;;;;5032269;28;20280;-81
2023/12/30 02:54:45;;;;;;;2.50;1.40;;;10.10;67.10;;;;;;5034805;28;20298;-81
2023/12/30 02:57:13;;;;;;;3.38;1.42;;;10.10;67.00;;;;;;5034631;28;20282;-81
2023/12/30 02:59:40;;;;;;;4.30;2.08;;;10.10;66.80;;;;;;5034665;28;20219;-81
2023/12/30 03:02:07;;;;;;;2.80;1.77;;;10.10;67.00;;;;;;5034480;28;20215;-82
2023/12/30 03:04:34;;;;;;;2.30;1.30;;;10.10;67.00;;;;;;5034741;28;20581;-81
2023/12/30 03:07:01;;;;;;;2.30;1.10;;;10.10;67.00;;;;;;5034797;28;20621;-81
2023/12/30 03:09:28;;;;;;;2.60;1.15;;;10.00;67.10;;;;;;5034600;28;20234;-82
2023/12/30 03:11:55;;;;;;;2.40;1.30;;;10.00;67.10;;;;;;5033707;28;20263;-81
2023/12/30 03:14:23;;;;;;;2.20;1.25;;;10.00;67.00;;;;;;5033219;28;20211;-81
2023/12/30 03:16:50;;;;;;;4.97;1.52;;;10.00;67.10;;;;;;5034328;28;20293;-81
2023/12/30 03:19:17;;;;;;;3.33;2.03;;;9.90;68.40;;;;;;5034538;28;20278;-81
2023/12/30 03:21:44;;;;;;;2.58;1.30;;;9.90;68.40;;;;;;5034006;28;20270;-81
2023/12/30 03:24:11;;;;;;;2.78;1.63;;;9.90;68.50;;;;;;5034528;28;20195;-81
2023/12/30 03:26:38;;;;;;;2.60;1.65;;;9.90;68.60;;;;;;5034413;28;20223;-81
2023/12/30 03:29:05;;;;;;;2.47;1.10;;;9.80;68.70;;;;;;5034284;28;20191;-81
2023/12/30 03:31:33;;;;;;;3.28;1.50;;;9.80;68.80;;;;;;5033951;28;20282;-81
2023/12/30 03:34:00;;;;;;;2.42;1.45;;;9.80;68.80;;;;;;5033914;28;20717;-81
2023/12/30 03:36:26;;;;;;;2.50;1.55;;;9.80;68.90;;;;;;5034154;28;20286;-81
2023/12/30 03:38:54;;;;;;;3.40;1.70;;;9.80;69.00;;;;;;5033892;28;20293;-81
2023/12/30 03:41:21;;;;;;;3.20;1.83;;;9.70;69.00;;;;;;5033581;28;20462;-81
2023/12/30 03:43:48;;;;;;;3.40;1.90;;;9.70;69.10;;;;;;5034096;28;20254;-81
2023/12/30 03:46:15;;;;;;;2.58;1.35;;;9.70;69.30;;;;;;5033733;28;20449;-81
2023/12/30 03:48:44;;;;;;;2.72;1.48;;;9.70;69.30;;;;;;5034063;28;20282;-81
2023/12/30 03:51:11;;;;;;;2.60;1.58;;;9.70;69.40;;;;;;5033627;28;20283;-82
2023/12/30 03:53:38;;;;;;;6.18;2.42;;;9.60;69.50;;;;;;5033867;28;20188;-82
2023/12/30 03:56:05;;;;;;;3.58;1.60;;;9.60;69.80;;;;;;5034040;28;20293;-82
2023/12/30 03:58:32;;;;;;;2.78;1.40;;;9.60;69.90;;;;;;5032887;28;20214;-82
2023/12/30 04:00:59;;;;;;;2.35;1.33;;;9.60;69.40;;;;;;5020925;28;20214;-82
2023/12/30 04:03:26;;;;;;;4.53;1.92;;;9.60;69.70;;;;;;5033708;28;20278;-82
2023/12/30 04:05:54;;;;;;;2.97;1.75;;;9.50;70.00;;;;;;5033904;28;20309;-82
2023/12/30 04:08:21;;;;;;;2.30;1.30;;;9.50;70.30;;;;;;5033090;28;20610;-81
2023/12/30 04:10:48;;;;;;;2.60;1.50;;;9.50;70.30;;;;;;5033524;28;20252;-82
2023/12/30 04:13:15;;;;;;;3.40;1.60;;;9.50;70.40;;;;;;5033863;28;20219;-82
2023/12/30 04:15:42;;;;;;;5.65;2.00;;;9.50;70.20;;;;;;5033263;28;20260;-82
2023/12/30 04:18:13;;;;;;;3.17;1.75;;;9.50;70.10;;;;;;5033650;28;20230;-82
2023/12/30 04:20:40;;;;;;;2.92;1.60;;;9.50;70.30;;;;;;5033694;28;20618;-82
2023/12/30 04:23:09;;;;;;;3.45;1.52;;;9.40;70.50;;;;;;5033471;28;20278;-82
2023/12/30 04:25:36;;;;;;;3.70;1.95;;;9.40;70.90;;;;;;5033091;28;20312;-82
2023/12/30 04:28:03;;;;;;;3.42;2.00;;;9.40;71.80;;;;;;5033271;28;20282;-82
2023/12/30 04:30:30;;;;;;;3.72;1.75;;;9.40;71.30;;;;;;5032891;28;20274;-82
2023/12/30 04:32:57;;;;;;;3.40;2.38;;;9.40;71.40;;;;;;5033460;28;20283;-82
2023/12/30 04:35:24;;;;;;;4.25;2.13;;;9.30;71.30;;;;;;5032945;28;20279;-82
2023/12/30 04:37:51;;;;;;;3.45;2.25;;;9.30;71.50;;;;;;5032692;28;20198;-82
2023/12/30 04:40:19;;;;;;;3.03;2.00;;;9.40;71.60;;;;;;5033003;28;20282;-82
2023/12/30 04:42:46;;;;;;;3.10;1.83;;;9.40;71.70;;;;;;5033418;28;20274;-82
2023/12/30 04:45:13;;;;;;;3.53;2.20;;;9.30;71.80;;;;;;5033286;28;20302;-82
2023/12/30 04:47:40;;;;;;;2.70;1.70;;;9.30;71.80;;;;;;5033304;28;20227;-82
2023/12/30 04:50:08;;;;;;;2.70;1.55;;;9.40;71.70;;;;;;5032744;28;20191;-82
2023/12/30 04:52:35;;;;;;;3.70;1.80;;;9.30;71.60;;;;;;5033346;28;20563;-83
2023/12/30 04:55:03;;;;;;;6.65;2.65;;;9.30;71.40;;;;;;5033171;28;20222;-83
2023/12/30 04:57:32;;;;;;;3.25;2.10;;;9.30;71.40;;;;;;5033063;28;20203;-83
2023/12/30 04:59:59;;;;;;;3.17;1.75;;;9.30;71.60;;;;;;5032488;28;20188;-83
2023/12/30 05:02:26;;;;;;;2.72;1.67;;;9.30;71.60;;;;;;5032718;28;20290;-82
2023/12/30 05:04:53;;;;;;;2.95;1.88;;;9.30;71.50;;;;;;5033268;28;20208;-83
2023/12/30 05:07:20;;;;;;;3.10;2.00;;;9.20;71.50;;;;;;5032559;28;20282;-82
2023/12/30 05:09:47;;;;;;;2.83;1.60;;;9.30;71.40;;;;;;5034733;28;20270;-83
2023/12/30 05:12:14;;;;;;;2.72;1.40;;;9.30;71.10;;;;;;5036799;28;20725;-82
2023/12/30 05:14:42;;;;;;;5.40;2.05;;;9.30;70.70;;;;;;5036520;28;20716;-83
2023/12/30 05:17:09;;;;;;;3.90;2.30;;;9.40;70.50;;;;;;5036866;28;20187;-82
2023/12/30 05:19:36;;;;;;;4.10;2.20;;;9.40;70.40;;;;;;5035961;28;20211;-83
2023/12/30 05:22:04;;;;;;;3.53;2.05;;;9.50;70.30;;;;;;5036709;28;20286;-83
2023/12/30 05:24:31;;;;;;;3.45;1.95;;;9.50;70.20;;;;;;5036700;28;20195;-83
2023/12/30 05:26:58;;;;;;;3.05;1.83;;;9.50;70.90;;;;;;5036199;28;20314;-83
2023/12/30 05:29:25;;;;;;;4.43;2.00;;;9.60;70.00;;;;;;5036221;28;20279;-83
2023/12/30 05:31:53;;;;;;;3.30;1.90;;;9.60;69.70;;;;;;5036144;28;20608;-82
2023/12/30 05:34:20;;;;;;;2.95;1.88;;;9.60;69.40;;;;;;5036145;28;20279;-82
2023/12/30 05:36:47;;;;;;;2.80;1.92;;;9.60;69.20;;;;;;5036470;28;20665;-82
2023/12/30 05:39:14;;;;;;;2.75;1.70;;;9.60;68.90;;;;;;5035755;28;20733;-82
2023/12/30 05:41:41;;;;;;;3.08;1.52;;;9.60;68.50;;;;;;5036356;28;20203;-82
2023/12/30 05:44:08;;;;;;;2.63;1.40;;;9.60;68.20;;;;;;5036362;28;20199;-82
2023/12/30 05:46:35;;;;;;;3.05;1.85;;;9.60;67.60;;;;;;5035846;28;20239;-82
2023/12/30 05:49:03;;;;;;;2.17;1.13;;;9.70;67.30;;;;;;5035646;28;20606;-82
2023/12/30 05:51:30;;;;;;;2.80;1.77;;;9.70;67.00;;;;;;5035899;28;20278;-82
2023/12/30 05:53:57;;;;;;;2.78;1.50;;;9.70;66.70;;;;;;5036151;28;20231;-82
2023/12/30 05:56:26;;;;;;;3.40;1.70;;;9.70;66.30;;;;;;5035731;28;20282;-82
2023/12/30 05:58:54;;;;;;;3.15;1.65;;;9.80;65.90;;;;;;5035402;28;20274;-82
2023/12/30 06:01:21;;;;;;;2.65;1.33;;;9.80;65.40;;;;;;5035924;28;20192;-82
2023/12/30 06:03:48;;;;;;;2.55;1.75;;;9.80;65.40;;;;;;5036066;28;20265;-82
2023/12/30 06:06:16;;;;;;;3.25;1.88;;;9.90;65.20;;;;;;5035783;28;20258;-83
2023/12/30 06:08:43;;;;;;;3.65;1.52;;;9.90;64.70;;;;;;5033775;28;20188;-82
2023/12/30 06:11:11;;;;;;;18.25;7.15;;;9.90;64.60;;;;;;5035455;28;20581;-83
2023/12/30 06:13:40;;;;;;;2.55;1.63;;;9.90;64.60;;;;;;5035841;28;20188;-83
2023/12/30 06:16:10;;;;;;;2.40;1.45;;;9.90;64.30;;;;;;5035723;28;20199;-83
2023/12/30 06:18:37;;;;;;;3.83;1.30;;;9.90;63.90;;;;;;5034866;28;20188;-83
2023/12/30 06:21:04;;;;;;;3.13;1.35;;;9.90;63.40;;;;;;5035649;28;20191;-83
2023/12/30 06:23:33;;;;;;;5.57;1.60;;;9.90;63.30;;;;;;5035370;28;20282;-82
2023/12/30 06:26:01;;;;;;;3.65;1.50;;;9.90;63.00;;;;;;5035468;28;20306;-83
2023/12/30 06:28:28;;;;;;;3.38;1.70;;;9.90;62.60;;;;;;5034877;28;20188;-82
2023/12/30 06:30:55;;;;;;;2.47;1.63;;;9.90;62.50;;;;;;5035579;28;20191;-83
2023/12/30 06:33:23;;;;;;;3.20;1.50;;;9.90;62.20;;;;;;5035178;28;20689;-83
2023/12/30 06:35:50;;;;;;;2.60;1.33;;;9.90;62.10;;;;;;5034957;28;20316;-82
2023/12/30 06:38:17;;;;;;;2.75;1.42;;;9.80;62.00;;;;;;5035036;28;20230;-82
2023/12/30 06:40:47;;;;;;;2.67;1.27;;;9.70;61.80;;;;;;5034898;28;20290;-82
2023/12/30 06:43:15;;;;;;;2.22;1.08;;;9.70;61.60;;;;;;5035344;28;20282;-82
2023/12/30 06:45:42;;;;;;;3.70;1.80;;;9.70;61.50;;;;;;5034881;28;20678;-82
2023/12/30 06:48:09;;;;;;;2.78;1.30;;;9.70;60.90;;;;;;5034145;28;20219;-81
2023/12/30 06:50:36;;;;;;;2.35;1.40;;;9.70;60.80;;;;;;5034832;28;20190;-83
2023/12/30 06:53:04;;;;;;;2.40;1.15;;;9.70;60.80;;;;;;5034396;28;20184;-82
2023/12/30 06:55:31;;;;;;;4.05;1.33;;;9.70;60.50;;;;;;5034945;28;20203;-83
2023/12/30 06:57:59;;;;;;;3.08;1.00;;;9.70;60.00;;;;;;5034768;28;20286;-83
2023/12/30 07:00:26;;;;;;;2.30;1.20;;;9.70;59.90;;;;;;5034303;28;20274;-83
2023/12/30 07:02:53;;;;;;;2.22;1.27;;;9.60;60.80;;;;;;5035159;28;20203;-83
2023/12/30 07:05:19;;;;;;;2.50;0.90;;;9.60;59.70;;;;;;5034087;28;20300;-82
2023/12/30 07:07:46;;;;;;;3.17;1.60;;;9.60;59.70;;;;;;5034783;28;20282;-82
2023/12/30 07:10:13;;;;;;;1.98;1.00;;;9.50;59.70;;;;;;5033935;28;20271;-82
2023/12/30 07:12:40;;;;;;;3.20;1.00;;;9.50;59.70;;;;;;5034385;28;20278;-82
2023/12/30 07:15:10;;;;;;;2.80;1.33;;;9.50;59.90;;;;;;5034218;28;20626;-82
2023/12/30 07:17:37;;;;;;;2.10;1.10;;;9.50;59.70;;;;;;5034626;28;20202;-82
2023/12/30 07:20:04;;;;;;;1.90;0.90;;;9.50;59.70;;;;;;5033732;28;20660;-82
2023/12/30 07:22:31;;;;;;;2.10;0.93;;;9.50;59.60;;;;;;5033955;28;20701;-83
2023/12/30 07:24:59;;;;;;;3.17;1.73;;;9.50;59.50;;;;;;5033507;28;20195;-83
2023/12/30 07:27:26;;;;;;;2.53;1.33;;;9.60;59.40;;;;;;5034074;28;20242;-82
2023/12/30 07:29:53;;;;;;;2.17;1.08;;;9.60;59.20;;;;;;5033772;28;20398;-81
2023/12/30 07:32:21;;;;;;;5.07;1.20;;;9.70;59.00;;;;;;5033438;28;20275;-82
2023/12/30 07:34:48;;;;;;;3.50;1.00;;;9.90;59.00;;;;;;5034165;28;20187;-82
2023/12/30 07:37:14;;;;;;;5.53;1.90;;;10.10;57.90;;;;;;5034071;28;20282;-82
2023/12/30 07:39:41;;;;;;;4.95;2.10;;;10.30;56.90;;;;;;5033478;28;20219;-81
2023/12/30 07:42:08;;;;;;;8.23;3.65;;;10.60;56.50;;;;;;5034026;28;20291;-82
2023/12/30 07:44:37;;;;;;;5.75;3.55;;;10.90;55.50;;;;;;5033364;28;20718;-83
2023/12/30 07:47:05;;;;;;;2.72;1.20;;;11.10;54.90;;;;;;5033743;28;20236;-83
2023/12/30 07:49:33;;;;;;;3.35;1.90;;;11.30;54.90;;;;;;5033429;28;20195;-83
2023/12/30 07:52:00;;;;;;;2.95;2.13;;;11.40;54.00;;;;;;5033841;28;20621;-84
2023/12/30 07:54:27;;;;;;;2.60;1.80;;;11.40;53.80;;;;;;5033277;28;20674;-83
2023/12/30 07:56:54;;;;;;;2.90;1.35;;;11.30;53.90;;;;;;5033609;28;20201;-83
2023/12/30 07:59:21;;;;;;;2.30;1.10;;;11.20;54.10;;;;;;5033425;28;20215;-82
2023/12/30 08:01:48;;;;;;;3.40;1.50;;;11.20;53.90;;;;;;5033614;28;20298;-83
2023/12/30 08:04:15;;;;;;;3.35;1.83;;;11.10;53.90;;;;;;5032961;28;20265;-82
2023/12/30 08:06:43;;;;;;;2.60;1.20;;;11.00;54.30;;;;;;5033327;28;20310;-83
2023/12/30 08:09:11;;;;;;;2.10;1.10;;;10.90;54.00;;;;;;5032312;28;20279;-83
2023/12/30 08:11:38;;;;;;;2.30;1.23;;;10.90;54.00;;;;;;5032708;28;20673;-83
2023/12/30 08:14:05;;;;;;;3.83;1.92;;;10.90;54.00;;;;;;5032622;28;20198;-83
2023/12/30 08:16:32;;;;;;;2.85;1.75;;;10.80;54.70;;;;;;5032888;28;20289;-83
2023/12/30 08:18:59;;;;;;;3.42;1.98;;;10.80;54.00;;;;;;5032519;28;20265;-82
2023/12/30 08:21:26;;;;;;;2.30;1.40;;;10.80;54.00;;;;;;5031856;28;20274;-82
2023/12/30 08:23:56;;;;;;;2.45;1.10;;;10.70;53.90;;;;;;5032428;28;20230;-83
2023/12/30 08:26:23;;;;;;;2.75;1.10;;;10.60;54.30;;;;;;5032815;28;20208;-82
2023/12/30 08:28:51;;;;;;;2.35;1.00;;;10.60;54.30;;;;;;5032467;28;20234;-82
2023/12/30 08:31:18;;;;;;;2.42;1.15;;;10.60;54.10;;;;;;5032809;28;20234;-82
2023/12/30 08:33:45;;;;;;;2.70;1.20;;;10.70;54.00;;;;;;5032793;28;20606;-82
2023/12/30 08:36:12;;;;;;;2.03;0.95;;;10.70;53.80;;;;;;5031810;28;20212;-81
2023/12/30 08:38:39;;;;;;;2.78;1.23;;;10.80;53.90;;;;;;5031978;28;20275;-81
2023/12/30 08:41:10;;;;;;;2.47;1.15;;;10.90;53.70;;;;;;5030595;28;20253;-82
2023/12/30 08:43:36;;;;;;;2.60;1.52;;;11.00;53.50;;;;;;5032347;28;20187;-82
2023/12/30 08:46:04;;;;;;;3.67;1.25;;;11.10;53.20;;;;;;5035865;28;20301;-82
2023/12/30 08:48:30;;;;;;;3.22;1.40;;;11.30;52.50;;;;;;5036530;28;20187;-83
2023/12/30 08:50:57;;;;;;;3.00;1.70;;;11.50;52.40;;;;;;5036102;28;20278;-82
2023/12/30 08:53:25;;;;;;;2.72;1.52;;;11.80;51.80;;;;;;5033724;28;21167;-83
2023/12/30 08:55:53;;;;;;;2.50;1.30;;;12.20;51.10;;;;;;5035532;28;20541;-83
2023/12/30 08:58:23;;;;;;;3.03;1.50;;;12.50;50.10;;;;;;5035713;28;20469;-83
2023/12/30 09:00:51;;;;;;;2.80;1.30;;;12.80;49.60;;;;;;5034582;28;20444;-83
2023/12/30 09:03:18;;;;;;;2.10;1.10;;;13.10;48.90;;;;;;5036063;28;20460;-84
2023/12/30 09:05:45;;;;;;;3.67;1.47;;;13.40;48.20;;;;;;5026275;28;20444;-84
2023/12/30 09:08:12;;;;;;;3.97;1.53;;;13.70;48.00;;;;;;5030197;28;20899;-83
2023/12/30 09:10:40;;;;;;;4.07;1.27;;;14.00;47.00;;;;;;5014605;28;21000;-83
2023/12/30 09:13:06;;;;;;;3.10;1.07;;;14.30;45.40;;;;;;5016080;28;20443;-83
2023/12/30 09:15:35;;;;;;;4.00;2.10;;;14.50;45.40;;;;;;5023527;28;20517;-83
2023/12/30 09:18:02;;;;;;;9.20;3.57;;;14.90;46.00;;;;;;5033955;28;20592;-83
2023/12/30 09:20:28;;;;;;;2.80;1.90;;;15.20;45.70;;;;;;5025459;28;20466;-83
2023/12/30 09:22:55;;;;;;;2.93;1.60;;;15.60;45.00;;;;;;5015876;28;20980;-83
2023/12/30 09:25:24;;;;;;;5.13;1.40;;;15.90;42.40;;;;;;5023804;28;20429;-85
2023/12/30 09:27:51;;;;;;;3.60;1.00;;;16.20;42.60;;;;;;5027994;28;21053;-87
2023/12/30 09:30:18;;;;;;;2.43;0.80;;;16.60;41.50;;;;;;5022640;28;20462;-86
2023/12/30 09:32:49;;;;;;;3.00;1.17;;;16.90;40.20;;;;;;5035202;28;20517;-87
2023/12/30 09:35:16;;;;;;;2.90;0.90;;;17.30;39.20;;;;;;5034543;28;20827;-87
2023/12/30 09:37:43;;;;;;;3.33;1.00;;;17.60;39.00;;;;;;5035220;28;20446;-89
2023/12/30 09:40:10;;;;;;;3.10;0.70;;;17.90;38.70;;;;;;5029303;28;20567;-89
2023/12/30 09:42:38;;;;;;;2.60;0.90;;;18.20;36.40;;;;;;5023853;28;20514;-87
2023/12/30 09:45:07;;;;;;;2.00;0.90;;;18.50;36.30;;;;;;5030858;28;20439;-89
2023/12/30 09:47:35;;;;;;;2.00;0.90;;;18.80;35.00;;;;;;5035558;28;20582;-89
2023/12/30 09:50:04;;;;;;;2.00;0.90;;;19.00;34.50;;;;;;5034315;28;20991;-89
2023/12/30 09:52:31;;;;;;;1.70;0.60;;;19.30;33.20;;;;;;5028697;28;20435;-87
2023/12/30 09:54:59;;;;;;;3.50;0.70;;;19.50;32.40;;;;;;5015056;28;20466;-89
2023/12/30 09:57:27;;;;;;;2.10;0.83;;;19.60;31.80;;;;;;5027116;28;20461;-91
2023/12/30 09:59:55;;;;;;;2.57;0.80;;;19.80;31.60;;;;;;5034737;28;20465;-90
2023/12/30 10:02:22;;;;;;;2.37;0.80;;;20.00;30.80;;;;;;5026609;28;20447;-91
2023/12/30 10:04:50;;;;;;;2.27;1.00;;;20.20;30.50;;;;;;5026941;28;20509;-90
2023/12/30 10:07:19;;;;;;;2.77;1.30;;;20.30;30.90;;;;;;5032388;28;20513;-90
2023/12/30 10:09:50;;;;;;;2.30;1.00;;;20.60;30.50;;;;;;5033377;28;20484;-88
2023/12/30 10:12:17;;;;;;;3.10;1.30;;;20.80;29.90;;;;;;5034540;28;20829;-91
2023/12/30 10:14:44;;;;;;;2.27;0.80;;;20.90;29.80;;;;;;5031533;28;20516;-91
2023/12/30 10:17:14;;;;;;;2.27;1.20;;;21.00;29.50;;;;;;5033971;28;20530;-91
2023/12/30 10:19:41;;;;;;;3.30;1.00;;;21.10;29.20;;;;;;5032724;28;20979;-91
2023/12/30 10:22:08;;;;;;;2.80;0.90;;;21.20;29.30;;;;;;5022533;28;20505;-92
2023/12/30 10:24:37;;;;;;;3.67;1.10;;;21.30;29.20;;;;;;5032884;28;20889;-93
2023/12/30 10:27:05;;;;;;;2.03;0.70;;;21.50;29.00;;;;;;5018096;28;20527;-90
2023/12/30 10:29:32;;;;;;;2.10;0.90;;;21.60;28.40;;;;;;5017247;28;20512;-91
2023/12/30 10:32:01;;;;;;;4.30;0.93;;;21.60;28.30;;;;;;5032706;28;20544;-93
2023/12/30 10:34:28;;;;;;;2.30;0.90;;;21.70;28.00;;;;;;5028969;28;20925;-92
2023/12/30 10:36:56;;;;;;;2.23;0.90;;;21.90;28.20;;;;;;5024548;28;20439;-91
2023/12/30 10:39:24;;;;;;;2.10;0.80;;;22.00;28.10;;;;;;5026428;28;20521;-91
2023/12/30 10:41:52;;;;;;;2.50;0.77;;;22.20;27.90;;;;;;5033052;28;20485;-88
2023/12/30 10:44:19;;;;;;;1.97;0.70;;;22.30;27.40;;;;;;5033603;28;20517;-86
2023/12/30 10:46:48;;;;;;;1.90;0.70;;;22.40;27.30;;;;;;5021119;28;20573;-88
2023/12/30 10:49:17;;;;;;;2.20;0.70;;;22.50;27.20;;;;;;5014126;28;20521;-87
2023/12/30 10:51:47;;;;;;;2.30;0.60;;;22.60;27.00;;;;;;5014019;28;20452;-86
2023/12/30 10:54:21;;;;;;;2.10;0.90;;;22.60;26.80;;;;;;5018559;28;21010;-88
2023/12/30 10:56:58;;;;;;;3.43;1.17;;;22.70;26.80;;;;;;5031301;28;20446;-88
2023/12/30 10:59:29;;;;;;;1.90;0.70;;;22.80;26.80;;;;;;5033775;28;20533;-88
2023/12/30 11:01:56;;;;;;;5.03;2.30;;;22.90;26.50;;;;;;5032350;28;20444;-88
2023/12/30 11:04:25;;;;;;;2.87;0.90;;;23.00;26.30;;;;;;5034004;28;20437;-88
2023/12/30 11:06:54;;;;;;;2.20;0.80;;;23.20;26.00;;;;;;5032876;28;20653;-88
2023/12/30 11:09:23;;;;;;;2.00;0.70;;;23.20;25.90;;;;;;5033930;28;20469;-89
2023/12/30 11:11:52;;;;;;;2.23;0.90;;;23.30;26.00;;;;;;5033866;28;20499;-90
2023/12/30 11:14:20;;;;;;;1.80;0.60;;;23.50;25.90;;;;;;5033985;28;20778;-90
2023/12/30 11:16:50;;;;;;;2.17;0.70;;;23.50;25.80;;;;;;5033807;28;20529;-89
2023/12/30 11:19:27;;;;;;;2.00;0.80;;;23.50;25.40;;;;;;5030362;28;20529;-87
2023/12/30 11:21:55;;;;;;;2.10;0.60;;;23.50;25.50;;;;;;5033370;28;20785;-93
2023/12/30 11:24:22;;;;;;;5.63;0.80;;;23.70;25.80;;;;;;5033109;28;20434;-85
2023/12/30 11:26:52;;;;;;;1.90;0.60;;;23.80;24.90;;;;;;5033340;28;20430;-88
2023/12/30 11:29:24;;;;;;;2.33;1.03;;;23.80;24.50;;;;;;5032924;28;20760;-91
2023/12/30 11:31:53;;;;;;;2.57;0.90;;;23.80;25.00;;;;;;5032634;28;20798;-91
2023/12/30 11:34:20;;;;;;;2.00;0.80;;;24.00;25.00;;;;;;5032763;28;20454;-91
2023/12/30 11:36:49;;;;;;;2.13;0.80;;;24.00;24.70;;;;;;5022488;28;20462;-86
2023/12/30 11:39:25;;;;;;;2.00;0.70;;;24.10;25.10;;;;;;5033723;28;20433;-86
2023/12/30 11:41:53;;;;;;;2.93;1.07;;;24.10;24.60;;;;;;5033537;28;20516;-86
2023/12/30 11:44:22;;;;;;;2.50;0.70;;;24.20;24.70;;;;;;5033370;28;20530;-88
2023/12/30 11:46:49;;;;;;;2.10;0.73;;;24.30;24.90;;;;;;5033611;28;20541;-87
2023/12/30 11:49:21;;;;;;;1.70;0.60;;;24.40;24.30;;;;;;5033259;28;20947;-87
2023/12/30 11:51:48;;;;;;;1.90;0.70;;;24.50;24.30;;;;;;5031929;28;20465;-89
2023/12/30 11:54:15;;;;;;;2.37;0.87;;;24.50;24.40;;;;;;5033072;28;20501;-88
2023/12/30 11:56:43;;;;;;;2.43;0.73;;;24.50;24.10;;;;;;5033496;28;20849;-88
2023/12/30 11:59:10;;;;;;;2.10;0.60;;;24.50;24.10;;;;;;5033233;28;20528;-87
2023/12/30 12:01:38;;;;;;;2.87;0.60;;;24.40;24.30;;;;;;5033154;28;20430;-88
2023/12/30 12:04:05;;;;;;;2.03;0.80;;;24.20;24.20;;;;;;5033525;28;20461;-86
2023/12/30 12:06:32;;;;;;;2.17;0.70;;;23.90;24.30;;;;;;5032911;28;20866;-87
2023/12/30 12:09:02;;;;;;;2.00;0.70;;;23.50;24.70;;;;;;5033311;28;20568;-90
2023/12/30 12:11:29;;;;;;;4.40;2.00;;;23.00;24.70;;;;;;5033102;28;20442;-90
2023/12/30 12:13:57;;;;;;;2.53;1.00;;;22.60;25.50;;;;;;5033345;28;20448;-90
2023/12/30 12:16:26;;;;;;;2.80;0.83;;;22.30;26.00;;;;;;5032787;28;20516;-90
2023/12/30 12:18:57;;;;;;;2.10;0.73;;;21.80;26.10;;;;;;5033155;28;20786;-89
2023/12/30 12:21:26;;;;;;;2.80;0.80;;;21.40;26.40;;;;;;5033319;28;20487;-90
2023/12/30 12:23:54;;;;;;;2.30;0.90;;;21.10;26.80;;;;;;5032927;28;20480;-87
2023/12/30 12:26:23;;;;;;;1.93;0.70;;;20.90;27.40;;;;;;5033257;28;20521;-89
2023/12/30 12:28:50;;;;;;;2.17;0.77;;;20.80;27.50;;;;;;5032497;28;20543;-89
2023/12/30 12:31:18;;;;;;;2.57;0.80;;;20.80;27.70;;;;;;5033424;28;20454;-89
2023/12/30 12:33:45;;;;;;;2.30;0.90;;;20.90;27.70;;;;;;5031990;28;20462;-89
2023/12/30 12:36:14;;;;;;;2.10;0.90;;;21.10;27.60;;;;;;5031820;28;20481;-90
2023/12/30 12:38:41;;;;;;;4.37;1.17;;;21.30;27.40;;;;;;5032631;28;20503;-89
2023/12/30 12:41:08;;;;;;;2.00;0.80;;;21.40;27.20;;;;;;5032471;28;20509;-89
2023/12/30 12:43:35;;;;;;;2.67;0.80;;;21.50;27.20;;;;;;5033050;28;20521;-88
2023/12/30 12:46:02;;;;;;;1.80;0.80;;;21.40;27.20;;;;;;5032768;28;20525;-87
2023/12/30 12:48:29;;;;;;;2.00;0.80;;;21.30;27.40;;;;;;5032590;28;20469;-87
2023/12/30 12:50:56;;;;;;;2.03;0.80;;;21.00;27.30;;;;;;5033168;28;20508;-88
2023/12/30 12:53:25;;;;;;;2.13;0.87;;;20.70;27.70;;;;;;5032749;28;20468;-88